createdAt,value
2023-01-12T00:30:32.104Z,-9.78
2023-01-12T00:33:00.186Z,-9.40
2023-01-12T00:35:27.064Z,-9.43
2023-01-12T00:37:53.970Z,-9.38
2023-01-12T00:40:20.866Z,-9.37
2023-01-12T00:43:13.942Z,-9.37
2023-01-12T00:45:40.885Z,-9.31
2023-01-12T00:48:12.720Z,-9.33
2023-01-12T00:50:39.611Z,-9.34
2023-01-12T00:53:06.514Z,-9.41
2023-01-12T00:55:33.404Z,-9.46
2023-01-12T00:58:00.324Z,-9.53
2023-01-12T01:00:27.218Z,-9.59
2023-01-12T01:02:54.217Z,-9.57
2023-01-12T01:05:21.079Z,-9.56
2023-01-12T01:07:48.091Z,-9.55
2023-01-12T01:10:15.697Z,-9.33
2023-01-12T01:12:42.633Z,-9.17
2023-01-12T01:15:10.078Z,-9.03
2023-01-12T01:17:37.061Z,-8.91
2023-01-12T01:20:04.815Z,-8.81
2023-01-12T01:22:31.721Z,-8.84
2023-01-12T01:24:58.597Z,-8.80
2023-01-12T01:27:25.484Z,-8.57
2023-01-12T01:29:52.499Z,-8.45
2023-01-12T01:32:19.743Z,-8.39
2023-01-12T01:34:47.283Z,-8.28
2023-01-12T01:37:14.203Z,-8.08
2023-01-12T01:39:41.213Z,-7.94
2023-01-12T01:42:28.369Z,-7.79
2023-01-12T01:44:59.598Z,-7.69
2023-01-12T01:47:51.222Z,-7.66
2023-01-12T01:50:26.315Z,-7.71
2023-01-12T01:52:58.181Z,-7.70
2023-01-12T01:55:27.015Z,-7.68
2023-01-12T01:57:57.329Z,-7.67
2023-01-12T02:00:24.628Z,-7.65
2023-01-12T02:02:51.506Z,-7.74
2023-01-12T02:05:20.288Z,-7.78
2023-01-12T02:07:49.010Z,-7.79
2023-01-12T02:10:16.215Z,-7.77
2023-01-12T02:13:01.832Z,-7.78
2023-01-12T02:15:49.495Z,-7.80
2023-01-12T02:18:16.375Z,-7.67
2023-01-12T02:21:01.800Z,-7.62
2023-01-12T02:24:17.322Z,-7.56
2023-01-12T02:29:56.985Z,-7.34
2023-01-12T02:32:51.773Z,-7.29
2023-01-12T02:35:41.842Z,-7.21
2023-01-12T02:38:14.469Z,-7.12
2023-01-12T02:41:12.819Z,-7.10
2023-01-12T02:43:40.374Z,-7.13
2023-01-12T02:46:25.896Z,-7.16
2023-01-12T02:49:08.509Z,-7.21
2023-01-12T02:52:05.200Z,-7.27
2023-01-12T02:54:32.079Z,-7.27
2023-01-12T02:57:04.757Z,-7.22
2023-01-12T02:59:36.383Z,-7.15
2023-01-12T03:08:11.926Z,-6.86
2023-01-12T03:10:51.406Z,-6.76
2023-01-12T03:13:18.346Z,-6.68
2023-01-12T03:15:50.619Z,-6.68
2023-01-12T03:18:41.811Z,-6.72
2023-01-12T03:21:18.891Z,-6.76
2023-01-12T03:23:51.132Z,-6.84
2023-01-12T03:26:19.110Z,-6.88
2023-01-12T03:28:47.005Z,-6.86
2023-01-12T03:31:13.996Z,-6.80
2023-01-12T03:33:41.412Z,-6.75
2023-01-12T03:36:24.593Z,-6.68
2023-01-12T03:39:09.876Z,-6.60
2023-01-12T03:41:56.777Z,-6.53
2023-01-12T03:44:36.343Z,-6.44
2023-01-12T03:47:05.518Z,-6.41
2023-01-12T03:49:43.084Z,-6.38
2023-01-12T03:52:10.039Z,-6.36
2023-01-12T03:54:37.069Z,-6.32
2023-01-12T03:57:03.974Z,-6.33
2023-01-12T03:59:30.840Z,-6.32
2023-01-12T04:01:57.797Z,-6.32
2023-01-12T04:04:24.735Z,-6.36
2023-01-12T04:06:51.668Z,-6.36
2023-01-12T10:20:38.075Z,-4.54
2023-01-12T10:23:07.560Z,-4.25
2023-01-12T10:25:44.837Z,-4.13
2023-01-12T10:28:14.347Z,-3.98
2023-01-12T10:30:41.322Z,-3.85
2023-01-12T10:33:12.133Z,-3.80
2023-01-12T10:35:57.613Z,-3.72
2023-01-12T10:38:35.559Z,-3.62
2023-01-12T10:41:21.770Z,-3.62
2023-01-12T10:43:56.139Z,-3.66
2023-01-12T10:46:23.793Z,-3.70
2023-01-12T10:48:51.700Z,-3.73
2023-01-12T10:51:18.455Z,-3.74
2023-01-12T10:53:50.332Z,-3.70
2023-01-12T10:57:07.289Z,-3.67
2023-01-12T10:59:38.410Z,-3.58
2023-01-12T11:02:06.425Z,-3.51
2023-01-12T11:04:38.199Z,-3.47
2023-01-12T11:07:10.244Z,-3.47
2023-01-12T11:09:37.209Z,-3.41
2023-01-12T11:12:19.094Z,-3.36
2023-01-12T11:15:11.460Z,-3.28
2023-01-12T11:17:53.767Z,-3.19
2023-01-12T11:21:02.912Z,-3.09
2023-01-12T11:23:44.714Z,-3.05
2023-01-12T11:26:21.539Z,-3.03
2023-01-12T11:28:52.790Z,-3.06
2023-01-12T11:31:25.304Z,-3.11
2023-01-12T11:33:55.741Z,-3.14
2023-01-12T11:36:34.247Z,-3.16
2023-01-12T11:39:04.154Z,-3.18
2023-01-12T11:42:08.110Z,-3.15
2023-01-12T11:44:57.233Z,-3.12
2023-01-12T11:47:26.487Z,-3.15
2023-01-12T11:50:26.857Z,-3.20
2023-01-12T11:52:57.453Z,-3.27
2023-01-12T11:55:41.305Z,-3.32
2023-01-12T11:58:26.539Z,-3.30
2023-01-12T12:01:06.655Z,-3.28
2023-01-12T16:23:31.944Z,-3.94
2023-01-12T16:25:59.678Z,-3.56
2023-01-12T16:28:27.590Z,-3.46
2023-01-12T16:30:55.140Z,-3.37
2023-01-12T16:33:22.346Z,-3.33
2023-01-12T16:35:49.300Z,-3.33
2023-01-12T16:38:16.983Z,-3.39
2023-01-12T16:40:45.273Z,-3.40
2023-01-12T16:43:12.290Z,-3.42
2023-01-12T16:45:42.733Z,-3.51
2023-01-12T16:48:09.739Z,-3.52
2023-01-12T16:50:42.434Z,-3.50
2023-01-12T16:53:10.554Z,-3.47
2023-01-12T16:55:38.183Z,-3.45
2023-01-12T16:58:05.504Z,-3.40
2023-01-12T17:00:34.668Z,-3.36
2023-01-12T17:03:02.892Z,-3.33
2023-01-12T17:05:30.343Z,-3.36
2023-01-12T17:07:57.383Z,-3.40
2023-01-12T17:10:24.477Z,-3.49
2023-01-12T17:12:56.443Z,-3.54
2023-01-12T17:15:28.532Z,-3.56
2023-01-12T17:17:56.235Z,-3.67
2023-01-12T17:20:23.269Z,-3.70
2023-01-12T17:22:50.893Z,-3.73
2023-01-12T17:25:17.787Z,-3.75
2023-01-12T17:27:44.965Z,-3.76
2023-01-12T17:30:12.111Z,-3.78
2023-01-12T17:32:39.553Z,-3.77
2023-01-12T17:35:09.442Z,-3.73
2023-01-12T17:37:36.573Z,-3.70
2023-01-12T17:40:04.428Z,-3.69
2023-01-12T17:45:30.353Z,-3.59
2023-01-12T17:47:58.564Z,-3.57
2023-01-12T17:50:25.963Z,-3.51
2023-01-12T17:52:52.984Z,-3.52
2023-01-12T17:55:19.806Z,-3.53
2023-01-12T17:57:46.634Z,-3.53
2023-01-12T18:00:16.467Z,-3.54
2023-01-12T18:02:43.774Z,-3.57
2023-01-12T18:05:10.852Z,-3.61
2023-01-12T18:07:38.326Z,-28.52
2023-01-12T18:10:06.480Z,-103.11
2023-01-12T18:12:33.536Z,-3.51
2023-01-12T18:15:00.560Z,-3.53
2023-01-12T18:17:29.695Z,-53.29
2023-01-12T18:19:56.854Z,-128.00
2023-01-12T18:22:23.818Z,-128.00
2023-01-12T18:24:50.689Z,-128.00
2023-01-12T18:27:17.734Z,-128.00
2023-01-12T18:29:44.648Z,-128.00
2023-01-12T18:32:11.773Z,-128.00
2023-01-12T18:34:41.505Z,-128.00
2023-01-12T18:37:08.458Z,-128.00
2023-01-12T18:39:35.363Z,-128.00
2023-01-12T18:42:28.478Z,-128.00
2023-01-12T18:44:57.372Z,-128.00
2023-01-12T18:47:43.226Z,-128.00
2023-01-12T18:50:49.166Z,-128.00
2023-01-12T18:53:24.908Z,-128.00
2023-01-12T18:55:57.038Z,-128.00
2023-01-12T18:58:29.753Z,-128.00
2023-01-12T19:00:58.487Z,-128.00
2023-01-12T19:03:25.372Z,-128.00
2023-01-12T19:06:19.946Z,-128.00
2023-01-12T19:09:05.644Z,-128.00
2023-01-12T19:11:32.612Z,-128.00
2023-01-12T19:14:18.356Z,-128.00
2023-01-12T19:17:04.044Z,-128.00
2023-01-12T19:19:31.307Z,-128.00
2023-01-12T19:22:17.025Z,-128.00
2023-01-12T19:25:02.805Z,-128.00
2023-01-12T19:27:48.566Z,-128.00
2023-01-12T19:30:15.797Z,-128.00
2023-01-12T19:32:42.644Z,-128.00
2023-01-12T19:35:11.773Z,-128.00
2023-01-12T19:37:40.410Z,-128.00
2023-01-12T19:40:18.091Z,-128.00
2023-01-12T19:43:03.767Z,-128.00
2023-01-12T19:45:30.809Z,-128.00
2023-01-12T19:47:57.745Z,-128.00
2023-01-12T19:50:24.786Z,-128.00
2023-01-12T19:52:51.851Z,-128.00
2023-01-12T19:55:18.756Z,-128.00
2023-01-12T23:12:18.072Z,-4.08
2023-01-12T23:14:44.903Z,-3.69
2023-01-12T23:17:14.539Z,-3.56
2023-01-12T23:19:41.420Z,-3.45
2023-01-12T23:22:08.248Z,-3.38
2023-01-12T23:24:35.191Z,-3.33
2023-01-12T23:27:02.072Z,-3.27
2023-01-12T23:29:30.614Z,-3.22
2023-01-12T23:31:57.448Z,-3.20
2023-01-12T23:34:24.299Z,-3.23
2023-01-12T23:36:51.671Z,-3.26
2023-01-12T23:39:18.509Z,-3.32
2023-01-12T23:41:45.347Z,-3.37
2023-01-12T23:44:12.281Z,-3.39
2023-01-12T23:46:40.450Z,-3.39
2023-01-12T23:49:07.296Z,-3.36
2023-01-12T23:51:36.376Z,-3.36
2023-01-12T23:54:03.377Z,-3.32
2023-01-12T23:56:32.200Z,-3.30
2023-01-12T23:58:59.082Z,-3.35
